createdAt,value
2022-12-23T00:00:43.330Z,4.50
2022-12-23T00:03:10.500Z,4.40
2022-12-23T00:05:39.373Z,4.57
2022-12-23T00:08:07.681Z,4.73
2022-12-23T00:10:40.567Z,4.87
2022-12-23T00:13:27.680Z,5.00
2022-12-23T00:16:11.501Z,4.57
2022-12-23T00:18:39.855Z,4.40
2022-12-23T00:21:14.185Z,4.13
2022-12-23T00:23:44.461Z,4.90
2022-12-23T00:26:23.890Z,4.60
2022-12-23T00:28:51.527Z,4.40
2022-12-23T00:31:19.586Z,4.07
2022-12-23T00:33:48.838Z,4.77
2022-12-23T00:36:23.640Z,4.80
2022-12-23T00:39:09.424Z,4.73
2022-12-23T00:41:54.966Z,4.70
2022-12-23T00:44:22.275Z,4.67
2022-12-23T00:46:49.864Z,3.70
2022-12-23T00:49:36.790Z,3.90
2022-12-23T00:52:04.985Z,4.60
2022-12-23T00:54:35.087Z,4.13
2022-12-23T00:57:09.796Z,4.60
2022-12-23T00:59:37.161Z,4.70
2022-12-23T01:02:23.087Z,4.27
2022-12-23T01:05:08.638Z,4.40
2022-12-23T01:07:35.840Z,4.03
2022-12-23T01:10:03.044Z,5.03
2022-12-23T01:12:30.068Z,4.17
2022-12-23T01:14:57.043Z,4.60
2022-12-23T01:17:24.358Z,4.27
2022-12-23T01:19:51.787Z,3.77
2022-12-23T01:22:18.794Z,4.13
2022-12-23T01:24:45.858Z,3.60
2022-12-23T01:27:14.436Z,3.87
2022-12-23T01:29:41.400Z,3.57
2022-12-23T01:32:11.297Z,3.77
2022-12-23T01:34:38.515Z,3.37
2022-12-23T01:37:05.763Z,3.83
2022-12-23T01:39:33.190Z,3.90
2022-12-23T01:42:19.060Z,3.07
2022-12-23T01:45:24.968Z,3.60
2022-12-23T01:47:54.835Z,4.63
2022-12-23T01:50:24.571Z,3.20
2022-12-23T01:53:15.604Z,3.93
2022-12-23T01:55:50.583Z,3.63
2022-12-23T01:58:23.263Z,2.97
2022-12-23T02:01:09.003Z,4.37
2022-12-23T02:03:42.917Z,4.10
2022-12-23T02:06:37.168Z,4.43
2022-12-23T02:09:17.780Z,4.87
2022-12-23T02:12:06.939Z,3.23
2022-12-23T02:15:05.468Z,3.73
2022-12-23T02:17:56.272Z,3.60
2022-12-23T02:20:32.394Z,3.23
2022-12-23T02:23:33.809Z,4.00
2022-12-23T02:26:31.751Z,3.63
2022-12-23T02:29:23.348Z,3.97
2022-12-23T02:32:18.691Z,3.53
2022-12-23T02:35:05.919Z,3.43
2022-12-23T02:37:37.016Z,4.07
2022-12-23T02:40:13.620Z,3.27
2022-12-23T02:43:21.273Z,4.07
2022-12-23T02:46:10.092Z,4.43
2022-12-23T02:48:56.942Z,3.33
2022-12-23T02:51:31.029Z,4.00
2022-12-23T02:54:03.052Z,4.10
2022-12-23T02:56:34.215Z,3.73
2022-12-23T02:59:18.554Z,3.67
2022-12-23T03:01:46.800Z,4.27
2022-12-23T03:04:14.865Z,3.70
2022-12-23T03:06:54.676Z,4.10
2022-12-23T03:09:48.327Z,3.60
2022-12-23T03:12:45.026Z,3.77
2022-12-23T03:15:37.141Z,4.63
2022-12-23T03:18:09.895Z,4.10
2022-12-23T03:20:52.038Z,4.47
2022-12-23T03:23:30.560Z,4.57
2022-12-23T03:26:20.174Z,4.53
2022-12-23T03:28:51.925Z,3.73
2022-12-23T03:31:24.274Z,3.90
2022-12-23T03:34:09.796Z,3.33
2022-12-23T03:36:48.647Z,3.93
2022-12-23T03:39:20.752Z,4.07
2022-12-23T03:42:02.191Z,3.40
2022-12-23T03:44:36.962Z,3.77
2022-12-23T03:47:28.061Z,3.77
2022-12-23T03:50:07.636Z,4.60
2022-12-23T03:52:42.697Z,4.30
2022-12-23T03:55:17.361Z,3.80
2022-12-23T03:57:51.469Z,3.43
2022-12-23T04:00:18.600Z,4.17
2022-12-23T04:02:51.776Z,3.43
2022-12-23T04:05:33.602Z,3.70
2022-12-23T04:08:15.151Z,3.37
2022-12-23T04:10:42.686Z,1.10
2022-12-23T04:13:09.945Z,0.50
2022-12-23T04:15:43.810Z,0.60
2022-12-23T04:18:11.643Z,0.27
2022-12-23T04:20:38.702Z,0.30
2022-12-23T04:23:06.093Z,0.63
2022-12-23T04:25:33.067Z,0.97
2022-12-23T04:28:00.276Z,0.57
2022-12-23T04:30:33.576Z,0.40
2022-12-23T04:33:02.012Z,0.60
2022-12-23T04:35:29.212Z,0.40
2022-12-23T04:37:56.331Z,0.20
2022-12-23T04:40:23.631Z,0.10
2022-12-23T04:42:50.655Z,0.27
2022-12-23T04:45:17.613Z,0.30
2022-12-23T04:47:44.729Z,0.40
2022-12-23T04:50:15.345Z,0.20
2022-12-23T04:52:43.525Z,0.13
2022-12-23T04:55:10.842Z,0.30
2022-12-23T04:57:38.175Z,0.20
2022-12-23T05:00:06.163Z,0.30
2022-12-23T05:02:33.279Z,0.23
2022-12-23T05:05:00.647Z,0.10
2022-12-23T05:07:27.721Z,0.30
2022-12-23T05:09:54.765Z,0.10
2022-12-23T05:12:21.732Z,0.30
2022-12-23T05:14:48.761Z,0.20
2022-12-23T05:17:15.752Z,0.20
2022-12-23T05:19:42.758Z,0.10
2022-12-23T05:22:10.143Z,0.17
2022-12-23T05:24:37.130Z,0.10
2022-12-23T05:27:04.246Z,0.10
2022-12-23T05:29:31.560Z,0.17
2022-12-23T05:31:58.740Z,0.37
2022-12-23T05:34:25.906Z,0.40
2022-12-23T05:36:53.033Z,0.20
2022-12-23T05:39:20.193Z,0.43
2022-12-23T05:41:47.270Z,0.23
2022-12-23T05:44:14.355Z,0.10
2022-12-23T05:46:41.500Z,0.20
2022-12-23T05:49:08.532Z,0.37
2022-12-23T05:51:35.537Z,0.20
2022-12-23T05:54:02.520Z,0.37
2022-12-23T05:56:29.668Z,0.20
2022-12-23T05:58:56.654Z,0.40
2022-12-23T06:01:23.619Z,0.97
2022-12-23T06:03:50.677Z,0.33
2022-12-23T06:06:17.908Z,0.50
2022-12-23T06:08:44.869Z,0.20
2022-12-23T06:11:13.056Z,0.47
2022-12-23T06:13:40.208Z,0.30
2022-12-23T06:16:07.526Z,0.40
2022-12-23T06:18:35.083Z,0.30
2022-12-23T06:21:02.130Z,0.23
2022-12-23T06:23:29.127Z,0.33
2022-12-23T06:26:00.698Z,0.53
2022-12-23T06:28:29.446Z,0.20
2022-12-23T06:30:57.324Z,0.30
2022-12-23T06:33:25.292Z,0.40
2022-12-23T06:35:52.291Z,0.30
2022-12-23T06:38:19.300Z,0.30
2022-12-23T06:40:46.233Z,0.20
2022-12-23T06:43:13.602Z,0.43
2022-12-23T06:45:41.127Z,0.47
2022-12-23T06:48:08.456Z,0.60
2022-12-23T06:50:37.583Z,0.70
2022-12-23T06:53:05.792Z,0.40
2022-12-23T06:55:33.202Z,0.30
2022-12-23T06:58:00.162Z,0.57
2022-12-23T07:00:27.215Z,0.57
2022-12-23T07:02:54.962Z,0.47
2022-12-23T07:05:22.262Z,0.50
2022-12-23T07:07:49.348Z,0.37
2022-12-23T07:10:16.519Z,0.83
2022-12-23T07:12:50.352Z,0.50
2022-12-23T07:15:18.089Z,0.40
2022-12-23T07:17:45.272Z,0.43
2022-12-23T07:20:13.859Z,0.30
2022-12-23T07:22:41.692Z,0.53
2022-12-23T07:25:09.190Z,0.47
2022-12-23T07:27:36.172Z,0.40
2022-12-23T07:30:03.635Z,0.30
2022-12-23T07:32:30.633Z,0.40
2022-12-23T07:34:57.691Z,0.43
2022-12-23T07:37:24.767Z,0.50
2022-12-23T07:39:51.707Z,0.67
2022-12-23T07:42:43.955Z,0.57
2022-12-23T07:45:06.396Z,0.57
2022-12-23T07:47:33.412Z,0.50
2022-12-23T07:50:00.480Z,0.47
2022-12-23T07:52:29.084Z,0.67
2022-12-23T07:54:56.138Z,0.30
2022-12-23T07:57:24.446Z,1.10
2022-12-23T07:59:51.570Z,0.60
2022-12-23T08:02:18.770Z,0.80
2022-12-23T08:04:46.712Z,0.60
2022-12-23T08:07:13.915Z,0.50
2022-12-23T08:09:40.965Z,0.43
2022-12-23T08:12:08.068Z,0.50
2022-12-23T08:14:35.128Z,0.33
2022-12-23T08:17:02.201Z,0.50
2022-12-23T08:19:29.199Z,0.70
2022-12-23T08:21:56.151Z,0.80
2022-12-23T08:24:23.094Z,0.40
2022-12-23T08:26:50.189Z,0.40
2022-12-23T08:29:17.368Z,0.60
2022-12-23T08:31:44.425Z,0.50
2022-12-23T08:34:11.583Z,0.50
2022-12-23T08:36:40.139Z,0.30
2022-12-23T08:39:10.882Z,0.30
2022-12-23T08:41:41.239Z,0.50
2022-12-23T08:44:09.553Z,0.40
2022-12-23T08:46:37.653Z,0.40
2022-12-23T08:49:05.754Z,1.53
2022-12-23T08:51:33.548Z,0.60
2022-12-23T08:54:01.813Z,0.77
2022-12-23T08:56:35.461Z,0.40
2022-12-23T08:59:02.930Z,0.67
2022-12-23T09:01:32.939Z,0.40
2022-12-23T09:04:05.780Z,0.60
2022-12-23T09:06:40.892Z,0.40
2022-12-23T09:09:09.646Z,0.60
2022-12-23T09:11:37.053Z,0.60
2022-12-23T09:14:05.129Z,0.63
2022-12-23T09:16:32.440Z,0.80
2022-12-23T09:18:59.692Z,1.23
2022-12-23T09:21:27.235Z,0.53
2022-12-23T09:23:54.527Z,0.63
2022-12-23T09:26:27.361Z,0.47
2022-12-23T09:28:55.096Z,0.50
2022-12-23T09:31:23.553Z,0.50
2022-12-23T09:33:52.682Z,0.30
2022-12-23T09:36:20.714Z,0.60
2022-12-23T09:38:48.390Z,0.20
2022-12-23T09:41:27.735Z,0.23
2022-12-23T09:44:13.500Z,0.40
2022-12-23T09:46:51.113Z,0.60
2022-12-23T09:49:19.925Z,0.50
2022-12-23T09:51:48.958Z,0.80
2022-12-23T09:54:23.229Z,0.43
2022-12-23T09:57:02.530Z,0.70
2022-12-23T09:59:49.733Z,0.80
2022-12-23T10:02:43.890Z,1.30
2022-12-23T10:05:29.659Z,1.30
2022-12-23T10:08:02.738Z,1.70
2022-12-23T10:10:42.963Z,1.20
2022-12-23T10:13:27.925Z,1.50
2022-12-23T10:15:58.493Z,1.47
2022-12-23T10:18:54.589Z,0.97
2022-12-23T10:21:33.212Z,0.90
2022-12-23T10:24:07.139Z,1.60
2022-12-23T10:26:49.155Z,1.30
2022-12-23T10:29:26.874Z,2.10
2022-12-23T10:32:26.630Z,1.83
2022-12-23T10:35:11.930Z,1.70
2022-12-23T10:37:54.148Z,1.43
2022-12-23T10:40:56.165Z,0.90
2022-12-23T10:43:39.131Z,1.37
2022-12-23T10:46:24.721Z,2.40
2022-12-23T10:49:07.854Z,1.43
2022-12-23T10:51:51.958Z,1.70
2022-12-23T10:54:33.965Z,1.03
2022-12-23T10:57:02.047Z,1.57
2022-12-23T10:59:32.998Z,1.73
2022-12-23T11:02:31.164Z,1.77
2022-12-23T11:04:58.425Z,1.67
2022-12-23T11:07:45.365Z,1.30
2022-12-23T11:10:22.360Z,1.83
2022-12-23T11:12:52.629Z,1.43
2022-12-23T11:15:33.415Z,1.47
2022-12-23T11:18:12.627Z,1.97
2022-12-23T11:20:43.671Z,2.07
2022-12-23T11:23:31.510Z,1.67
2022-12-23T11:26:07.527Z,1.20
2022-12-23T11:28:47.721Z,1.20
2022-12-23T11:31:17.146Z,0.90
2022-12-23T11:34:02.696Z,1.03
2022-12-23T11:36:31.292Z,1.37
2022-12-23T11:39:14.817Z,1.40
2022-12-23T11:41:48.866Z,1.40
2022-12-23T11:44:21.903Z,1.83
2022-12-23T11:46:48.986Z,1.30
2022-12-23T11:49:17.144Z,1.67
2022-12-23T11:51:47.256Z,1.00
2022-12-23T11:54:20.559Z,0.80
2022-12-23T11:56:52.437Z,1.23
2022-12-23T11:59:42.374Z,1.10
2022-12-23T12:02:22.108Z,1.23
2022-12-23T12:05:03.524Z,1.30
2022-12-23T12:07:31.885Z,1.17
2022-12-23T12:10:01.546Z,1.67
2022-12-23T12:12:29.874Z,1.60
2022-12-23T12:15:00.507Z,0.50
2022-12-23T12:17:42.924Z,1.17
2022-12-23T12:20:33.842Z,0.90
2022-12-23T12:23:21.652Z,1.20
2022-12-23T12:26:01.959Z,1.40
2022-12-23T12:28:41.988Z,1.30
2022-12-23T12:31:39.715Z,4.33
2022-12-23T12:34:31.556Z,1.20
2022-12-23T12:36:58.641Z,1.07
2022-12-23T12:39:33.659Z,1.50
2022-12-23T12:42:10.930Z,0.93
2022-12-23T12:45:05.147Z,1.10
2022-12-23T12:47:56.063Z,1.60
2022-12-23T12:50:34.126Z,1.60
2022-12-23T12:53:22.094Z,1.63
2022-12-23T12:55:54.473Z,1.40
2022-12-23T12:58:24.568Z,1.43
2022-12-23T13:01:18.070Z,1.60
2022-12-23T13:03:50.870Z,1.70
2022-12-23T13:06:32.869Z,1.60
2022-12-23T13:09:07.607Z,2.00
2022-12-23T13:12:06.435Z,1.77
2022-12-23T13:14:52.275Z,3.30
2022-12-23T13:17:25.833Z,1.60
2022-12-23T13:19:52.820Z,1.50
2022-12-23T13:22:30.984Z,1.90
2022-12-23T13:25:30.255Z,1.57
2022-12-23T13:28:11.877Z,1.63
2022-12-23T13:30:46.661Z,1.43
2022-12-23T13:33:23.911Z,1.63
2022-12-23T13:36:20.207Z,2.27
2022-12-23T13:39:23.543Z,2.13
2022-12-23T13:41:53.651Z,1.40
2022-12-23T13:44:22.027Z,1.70
2022-12-23T13:47:00.940Z,1.33
2022-12-23T13:49:45.818Z,1.53
2022-12-23T13:52:43.951Z,1.97
2022-12-23T13:55:41.919Z,2.03
2022-12-23T13:58:20.693Z,1.90
2022-12-23T14:01:03.335Z,1.50
2022-12-23T14:03:36.220Z,1.80
2022-12-23T14:06:26.315Z,3.43
2022-12-23T14:08:55.275Z,1.70
2022-12-23T14:11:28.937Z,2.07
2022-12-23T14:14:01.849Z,1.47
2022-12-23T14:16:53.231Z,2.33
2022-12-23T14:19:38.962Z,2.87
2022-12-23T14:22:44.050Z,2.90
2022-12-23T14:25:35.792Z,3.03
2022-12-23T14:28:32.178Z,2.87
2022-12-23T14:31:00.320Z,1.80
2022-12-23T14:33:31.409Z,3.40
2022-12-23T14:36:24.672Z,2.97
2022-12-23T14:39:09.783Z,1.97
2022-12-23T14:41:39.384Z,2.30
2022-12-23T14:44:39.222Z,2.30
2022-12-23T14:47:35.673Z,2.20
2022-12-23T14:50:35.845Z,1.83
2022-12-23T14:53:19.137Z,1.90
2022-12-23T14:55:47.849Z,1.47
2022-12-23T14:58:18.368Z,1.30
2022-12-23T15:00:48.149Z,2.10
2022-12-23T15:03:20.449Z,1.93
2022-12-23T15:05:47.735Z,1.63
2022-12-23T15:08:39.299Z,1.90
2022-12-23T15:11:09.942Z,1.60
2022-12-23T15:13:37.892Z,4.03
2022-12-23T15:16:05.217Z,1.23
2022-12-23T15:18:32.319Z,1.60
2022-12-23T15:21:10.334Z,1.30
2022-12-23T15:23:37.461Z,2.07
2022-12-23T15:26:04.517Z,1.50
2022-12-23T15:28:38.359Z,2.60
2022-12-23T15:31:06.829Z,2.23
2022-12-23T15:36:30.922Z,2.83
2022-12-23T15:39:00.111Z,2.23
2022-12-23T15:41:27.716Z,1.60
2022-12-23T15:43:58.300Z,2.33
2022-12-23T15:46:30.132Z,1.33
2022-12-23T15:48:57.859Z,2.20
2022-12-23T15:52:05.288Z,2.00
2022-12-23T15:54:23.249Z,2.90
2022-12-23T15:56:53.501Z,1.97
2022-12-23T15:59:37.497Z,2.20
2022-12-23T16:02:58.420Z,2.07
2022-12-23T16:05:08.819Z,2.47
2022-12-23T16:07:41.484Z,1.60
2022-12-23T16:10:16.759Z,3.77
2022-12-23T16:12:44.524Z,3.07
2022-12-23T16:15:29.800Z,4.53
2022-12-23T16:18:32.901Z,1.90
2022-12-23T16:21:03.410Z,2.97
2022-12-23T16:23:33.428Z,1.80
2022-12-23T16:26:01.907Z,1.60
2022-12-23T16:28:44.783Z,1.73
2022-12-23T16:31:16.689Z,2.27
2022-12-23T16:33:58.136Z,1.93
2022-12-23T16:36:28.275Z,2.13
2022-12-23T16:39:07.334Z,2.20
2022-12-23T16:41:35.389Z,2.33
2022-12-23T16:44:03.176Z,2.97
2022-12-23T16:46:37.424Z,2.90
2022-12-23T16:49:08.482Z,2.10
2022-12-23T16:51:36.501Z,2.40
2022-12-23T16:54:04.032Z,2.27
2022-12-23T16:56:35.762Z,2.50
2022-12-23T16:59:03.363Z,2.23
2022-12-23T17:01:39.226Z,2.33
2022-12-23T17:04:07.737Z,2.37
2022-12-23T17:06:36.116Z,3.57
2022-12-23T17:09:04.732Z,1.93
2022-12-23T17:11:40.832Z,2.27
2022-12-23T17:14:21.700Z,2.60
2022-12-23T17:16:49.823Z,2.43
2022-12-23T17:19:23.424Z,2.10
2022-12-23T17:21:59.974Z,2.00
2022-12-23T17:24:27.460Z,2.53
2022-12-23T17:26:56.880Z,2.07
2022-12-23T17:29:24.332Z,1.80
2022-12-23T17:31:51.769Z,2.00
2022-12-23T17:34:21.508Z,2.07
2022-12-23T17:36:50.724Z,2.90
2022-12-23T17:39:19.207Z,2.20
2022-12-23T17:41:47.235Z,2.00
2022-12-23T17:44:17.951Z,1.80
2022-12-23T17:46:46.270Z,2.10
2022-12-23T17:49:15.601Z,2.40
2022-12-23T17:51:43.312Z,1.90
2022-12-23T17:54:24.342Z,2.20
2022-12-23T17:56:51.601Z,2.83
2022-12-23T17:59:18.651Z,2.07
2022-12-23T18:01:45.923Z,2.30
2022-12-23T18:04:13.025Z,2.50
2022-12-23T18:06:40.071Z,2.83
2022-12-23T18:09:07.052Z,3.13
2022-12-23T18:11:44.010Z,2.17
2022-12-23T18:14:17.892Z,3.23
2022-12-23T18:16:45.096Z,2.57
2022-12-23T18:19:20.613Z,3.80
2022-12-23T18:21:47.967Z,1.67
2022-12-23T18:24:15.254Z,2.17
2022-12-23T18:26:42.368Z,1.80
2022-12-23T18:29:09.517Z,2.27
2022-12-23T18:31:40.943Z,2.90
2022-12-23T18:34:17.222Z,2.33
2022-12-23T18:36:44.675Z,3.20
2022-12-23T18:39:11.769Z,2.00
2022-12-23T18:41:38.801Z,2.23
2022-12-23T18:44:05.843Z,2.33
2022-12-23T18:46:32.803Z,2.73
2022-12-23T18:49:00.036Z,2.60
2022-12-23T18:51:27.094Z,3.87
2022-12-23T18:53:54.104Z,2.97
2022-12-23T18:56:21.437Z,3.03
2022-12-23T18:58:48.883Z,3.90
2022-12-23T19:01:17.554Z,2.93
2022-12-23T19:03:45.370Z,2.77
2022-12-23T19:06:15.723Z,2.57
2022-12-23T19:08:44.041Z,2.60
2022-12-23T19:11:19.651Z,2.80
2022-12-23T19:13:47.644Z,2.03
2022-12-23T19:16:17.501Z,3.33
2022-12-23T19:18:45.696Z,2.63
2022-12-23T19:21:12.879Z,2.50
2022-12-23T19:23:41.541Z,2.50
2022-12-23T19:26:13.280Z,2.70
2022-12-23T19:28:43.919Z,2.30
2022-12-23T19:31:16.499Z,2.83
2022-12-23T19:33:46.082Z,2.30
2022-12-23T19:36:16.750Z,2.03
2022-12-23T19:38:44.045Z,2.07
2022-12-23T19:41:11.269Z,3.87
2022-12-23T19:43:39.287Z,2.00
2022-12-23T19:46:09.029Z,2.43
2022-12-23T19:48:36.836Z,1.87
2022-12-23T19:51:12.944Z,1.67
2022-12-23T19:53:41.526Z,3.40
2022-12-23T19:56:12.200Z,3.13
2022-12-23T19:58:41.889Z,3.53
2022-12-23T20:01:12.690Z,2.87
2022-12-23T20:03:40.874Z,2.60
2022-12-23T20:06:17.759Z,3.17
2022-12-23T20:08:45.310Z,2.63
2022-12-23T20:11:19.271Z,2.37
2022-12-23T20:13:47.183Z,2.10
2022-12-23T20:16:14.276Z,2.87
2022-12-23T20:18:43.091Z,2.30
2022-12-23T20:21:10.443Z,2.73
2022-12-23T20:23:37.625Z,2.87
2022-12-23T20:26:06.443Z,2.33
2022-12-23T20:28:34.628Z,2.90
2022-12-23T20:31:29.522Z,2.30
2022-12-23T20:33:57.375Z,1.57
2022-12-23T20:36:30.719Z,2.30
2022-12-23T20:38:58.126Z,2.73
2022-12-23T20:41:28.673Z,2.93
2022-12-23T20:44:32.969Z,1.90
2022-12-23T20:46:43.247Z,2.70
2022-12-23T20:49:10.309Z,2.40
2022-12-23T20:51:37.294Z,1.70
2022-12-23T20:54:04.566Z,2.10
2022-12-23T20:56:31.908Z,2.90
2022-12-23T20:59:00.339Z,2.33
2022-12-23T21:01:40.964Z,2.33
2022-12-23T21:04:11.730Z,2.30
2022-12-23T21:06:39.476Z,2.87
2022-12-23T21:09:08.897Z,2.53
2022-12-23T21:11:43.156Z,3.10
2022-12-23T21:14:11.227Z,2.97
2022-12-23T21:16:39.172Z,3.03
2022-12-23T21:19:08.637Z,2.70
2022-12-23T21:21:35.836Z,2.43
2022-12-23T21:24:04.927Z,3.27
2022-12-23T21:26:34.136Z,3.63
2022-12-23T21:29:04.043Z,3.63
2022-12-23T21:31:33.090Z,2.30
2022-12-23T21:34:00.439Z,2.33
2022-12-23T21:36:31.212Z,2.53
2022-12-23T21:38:59.272Z,2.60
2022-12-23T21:41:29.607Z,2.20
2022-12-23T21:43:57.777Z,2.93
2022-12-23T21:46:25.577Z,3.20
2022-12-23T21:48:53.399Z,2.53
2022-12-23T21:51:22.831Z,2.10
2022-12-23T21:53:52.484Z,2.30
2022-12-23T21:56:26.627Z,1.73
2022-12-23T21:59:07.205Z,1.60
2022-12-23T22:01:34.967Z,1.70
2022-12-23T22:04:02.499Z,2.00
2022-12-23T22:06:37.298Z,1.80
2022-12-23T22:09:05.971Z,1.40
2022-12-23T22:11:35.238Z,1.90
2022-12-23T22:14:03.964Z,1.93
2022-12-23T22:16:32.321Z,2.07
2022-12-23T22:19:00.475Z,2.23
2022-12-23T22:21:29.198Z,1.53
2022-12-23T22:23:57.174Z,1.40
2022-12-23T22:26:29.716Z,1.20
2022-12-23T22:28:58.910Z,1.53
2022-12-23T22:31:40.897Z,2.60
2022-12-23T22:34:11.405Z,1.70
2022-12-23T22:36:38.505Z,1.20
2022-12-23T22:39:07.803Z,1.63
2022-12-23T22:41:35.486Z,1.60
2022-12-23T22:44:02.522Z,1.60
2022-12-23T22:46:30.875Z,2.10
2022-12-23T22:48:59.099Z,1.80
2022-12-23T22:51:31.140Z,1.40
2022-12-23T22:53:58.531Z,1.43
2022-12-23T22:56:26.661Z,2.00
2022-12-23T22:58:54.992Z,1.70
2022-12-23T23:01:22.510Z,1.70
2022-12-23T23:03:57.174Z,1.30
2022-12-23T23:06:30.376Z,1.40
2022-12-23T23:08:58.171Z,1.47
2022-12-23T23:11:26.733Z,1.73
2022-12-23T23:13:54.863Z,2.23
2022-12-23T23:16:22.889Z,1.80
2022-12-23T23:18:50.848Z,1.70
2022-12-23T23:21:17.945Z,1.83
2022-12-23T23:23:45.270Z,1.70
2022-12-23T23:26:12.847Z,1.50
2022-12-23T23:28:40.676Z,1.30
2022-12-23T23:31:40.357Z,1.40
2022-12-23T23:33:57.992Z,2.60
2022-12-23T23:36:25.457Z,1.77
2022-12-23T23:38:52.518Z,1.93
2022-12-23T23:41:23.946Z,1.20
2022-12-23T23:43:52.188Z,1.30
2022-12-23T23:46:19.459Z,1.60
2022-12-23T23:48:46.550Z,1.67
2022-12-23T23:51:13.581Z,1.43
2022-12-23T23:53:40.873Z,1.90
2022-12-23T23:56:09.239Z,1.70
2022-12-23T23:58:37.132Z,1.50
